sensor_id;sensor_type;location;lat;lon;timestamp;P1;durP1;ratioP1;P2;durP2;ratioP2
20369;SDS011;10344;47.592;9.600;2023-05-20T00:01:44;7.05;;;6.35;;
20369;SDS011;10344;47.592;9.600;2023-05-20T00:04:09;8.52;;;6.50;;
20369;SDS011;10344;47.592;9.600;2023-05-20T00:06:42;7.38;;;6.20;;
20369;SDS011;10344;47.592;9.600;2023-05-20T00:09:07;7.55;;;6.80;;
20369;SDS011;10344;47.592;9.600;2023-05-20T00:11:37;6.78;;;5.82;;
20369;SDS011;10344;47.592;9.600;2023-05-20T00:14:06;7.32;;;6.63;;
20369;SDS011;10344;47.592;9.600;2023-05-20T00:16:35;8.88;;;7.30;;
20369;SDS011;10344;47.592;9.600;2023-05-20T00:19:04;7.83;;;7.00;;
20369;SDS011;10344;47.592;9.600;2023-05-20T00:21:30;7.10;;;6.40;;
20369;SDS011;10344;47.592;9.600;2023-05-20T00:23:56;7.60;;;6.73;;
20369;SDS011;10344;47.592;9.600;2023-05-20T00:26:27;7.28;;;6.55;;
20369;SDS011;10344;47.592;9.600;2023-05-20T00:28:53;7.50;;;6.38;;
20369;SDS011;10344;47.592;9.600;2023-05-20T00:31:19;7.40;;;6.60;;
20369;SDS011;10344;47.592;9.600;2023-05-20T00:33:45;7.70;;;6.90;;
20369;SDS011;10344;47.592;9.600;2023-05-20T00:36:11;7.18;;;6.22;;
20369;SDS011;10344;47.592;9.600;2023-05-20T00:38:36;7.43;;;6.63;;
20369;SDS011;10344;47.592;9.600;2023-05-20T00:41:02;7.57;;;6.60;;
20369;SDS011;10344;47.592;9.600;2023-05-20T00:43:29;8.57;;;7.45;;
20369;SDS011;10344;47.592;9.600;2023-05-20T00:46:01;8.23;;;7.25;;
20369;SDS011;10344;47.592;9.600;2023-05-20T00:48:31;7.45;;;6.68;;
20369;SDS011;10344;47.592;9.600;2023-05-20T00:51:12;8.52;;;6.85;;
20369;SDS011;10344;47.592;9.600;2023-05-20T00:53:42;8.77;;;7.40;;
20369;SDS011;10344;47.592;9.600;2023-05-20T00:56:08;9.37;;;7.67;;
20369;SDS011;10344;47.592;9.600;2023-05-20T00:58:34;7.75;;;6.95;;
20369;SDS011;10344;47.592;9.600;2023-05-20T01:01:07;7.90;;;6.43;;
20369;SDS011;10344;47.592;9.600;2023-05-20T01:03:32;8.30;;;6.90;;
20369;SDS011;10344;47.592;9.600;2023-05-20T01:05:58;8.25;;;7.25;;
20369;SDS011;10344;47.592;9.600;2023-05-20T01:08:25;7.40;;;6.63;;
20369;SDS011;10344;47.592;9.600;2023-05-20T01:10:56;8.73;;;7.30;;
20369;SDS011;10344;47.592;9.600;2023-05-20T01:13:39;7.90;;;7.13;;
20369;SDS011;10344;47.592;9.600;2023-05-20T01:16:16;8.88;;;7.32;;
20369;SDS011;10344;47.592;9.600;2023-05-20T01:18:49;8.40;;;6.63;;
20369;SDS011;10344;47.592;9.600;2023-05-20T01:21:23;7.40;;;6.70;;
20369;SDS011;10344;47.592;9.600;2023-05-20T01:23:53;8.05;;;6.80;;
20369;SDS011;10344;47.592;9.600;2023-05-20T01:26:21;7.60;;;6.72;;
20369;SDS011;10344;47.592;9.600;2023-05-20T01:28:50;7.60;;;6.78;;
20369;SDS011;10344;47.592;9.600;2023-05-20T01:31:22;7.68;;;6.88;;
20369;SDS011;10344;47.592;9.600;2023-05-20T01:34:01;8.80;;;7.90;;
20369;SDS011;10344;47.592;9.600;2023-05-20T01:36:28;7.30;;;6.60;;
20369;SDS011;10344;47.592;9.600;2023-05-20T01:38:58;8.23;;;7.43;;
20369;SDS011;10344;47.592;9.600;2023-05-20T01:41:25;7.93;;;7.13;;
20369;SDS011;10344;47.592;9.600;2023-05-20T01:43:51;8.43;;;7.53;;
20369;SDS011;10344;47.592;9.600;2023-05-20T01:46:17;8.63;;;7.53;;
20369;SDS011;10344;47.592;9.600;2023-05-20T01:48:49;8.23;;;7.43;;
20369;SDS011;10344;47.592;9.600;2023-05-20T01:51:14;9.27;;;7.82;;
20369;SDS011;10344;47.592;9.600;2023-05-20T01:53:42;8.45;;;7.55;;
20369;SDS011;10344;47.592;9.600;2023-05-20T01:56:08;8.73;;;7.50;;
20369;SDS011;10344;47.592;9.600;2023-05-20T01:58:34;8.30;;;7.50;;
20369;SDS011;10344;47.592;9.600;2023-05-20T02:01:00;9.27;;;8.30;;
20369;SDS011;10344;47.592;9.600;2023-05-20T02:03:25;9.40;;;8.37;;
20369;SDS011;10344;47.592;9.600;2023-05-20T02:05:58;9.82;;;8.15;;
20369;SDS011;10344;47.592;9.600;2023-05-20T02:08:30;10.00;;;7.93;;
20369;SDS011;10344;47.592;9.600;2023-05-20T02:10:58;9.10;;;7.75;;
20369;SDS011;10344;47.592;9.600;2023-05-20T02:13:31;8.60;;;7.70;;
20369;SDS011;10344;47.592;9.600;2023-05-20T02:15:56;9.27;;;8.23;;
20369;SDS011;10344;47.592;9.600;2023-05-20T02:18:22;10.37;;;8.77;;
20369;SDS011;10344;47.592;9.600;2023-05-20T02:20:50;9.73;;;8.40;;
20369;SDS011;10344;47.592;9.600;2023-05-20T02:23:18;8.55;;;7.65;;
20369;SDS011;10344;47.592;9.600;2023-05-20T02:25:50;9.20;;;8.02;;
20369;SDS011;10344;47.592;9.600;2023-05-20T02:28:18;10.93;;;8.60;;
20369;SDS011;10344;47.592;9.600;2023-05-20T02:30:44;10.75;;;9.10;;
20369;SDS011;10344;47.592;9.600;2023-05-20T02:33:12;9.57;;;8.30;;
20369;SDS011;10344;47.592;9.600;2023-05-20T02:35:45;8.75;;;7.85;;
20369;SDS011;10344;47.592;9.600;2023-05-20T02:38:19;11.00;;;8.80;;
20369;SDS011;10344;47.592;9.600;2023-05-20T02:40:46;9.63;;;8.68;;
20369;SDS011;10344;47.592;9.600;2023-05-20T02:43:19;11.05;;;8.82;;
20369;SDS011;10344;47.592;9.600;2023-05-20T02:45:44;9.40;;;8.10;;
20369;SDS011;10344;47.592;9.600;2023-05-20T02:48:15;9.75;;;8.75;;
20369;SDS011;10344;47.592;9.600;2023-05-20T02:50:44;10.95;;;8.38;;
20369;SDS011;10344;47.592;9.600;2023-05-20T02:53:13;10.02;;;8.88;;
20369;SDS011;10344;47.592;9.600;2023-05-20T02:55:39;10.65;;;9.55;;
20369;SDS011;10344;47.592;9.600;2023-05-20T02:58:08;10.52;;;9.38;;
20369;SDS011;10344;47.592;9.600;2023-05-20T03:00:34;10.00;;;9.00;;
20369;SDS011;10344;47.592;9.600;2023-05-20T03:03:04;10.13;;;9.00;;
20369;SDS011;10344;47.592;9.600;2023-05-20T03:05:42;11.05;;;8.95;;
20369;SDS011;10344;47.592;9.600;2023-05-20T03:08:10;10.50;;;8.60;;
20369;SDS011;10344;47.592;9.600;2023-05-20T03:10:39;9.90;;;8.60;;
20369;SDS011;10344;47.592;9.600;2023-05-20T03:13:07;9.75;;;8.60;;
20369;SDS011;10344;47.592;9.600;2023-05-20T03:15:34;11.55;;;8.80;;
20369;SDS011;10344;47.592;9.600;2023-05-20T03:18:01;10.27;;;8.95;;
20369;SDS011;10344;47.592;9.600;2023-05-20T03:20:27;10.50;;;8.97;;
20369;SDS011;10344;47.592;9.600;2023-05-20T03:22:56;10.27;;;9.18;;
20369;SDS011;10344;47.592;9.600;2023-05-20T03:25:24;10.75;;;8.73;;
20369;SDS011;10344;47.592;9.600;2023-05-20T03:27:55;10.50;;;9.13;;
20369;SDS011;10344;47.592;9.600;2023-05-20T03:30:23;11.27;;;9.50;;
20369;SDS011;10344;47.592;9.600;2023-05-20T03:32:49;10.60;;;8.98;;
20369;SDS011;10344;47.592;9.600;2023-05-20T03:35:17;10.27;;;8.48;;
20369;SDS011;10344;47.592;9.600;2023-05-20T03:37:43;10.63;;;8.97;;
20369;SDS011;10344;47.592;9.600;2023-05-20T03:40:17;9.68;;;8.68;;
20369;SDS011;10344;47.592;9.600;2023-05-20T03:42:42;9.77;;;8.65;;
20369;SDS011;10344;47.592;9.600;2023-05-20T03:45:15;9.38;;;8.38;;
20369;SDS011;10344;47.592;9.600;2023-05-20T03:47:43;11.38;;;9.75;;
20369;SDS011;10344;47.592;9.600;2023-05-20T03:50:15;10.05;;;8.25;;
20369;SDS011;10344;47.592;9.600;2023-05-20T03:52:43;10.25;;;9.18;;
20369;SDS011;10344;47.592;9.600;2023-05-20T03:55:11;10.85;;;9.32;;
20369;SDS011;10344;47.592;9.600;2023-05-20T03:57:41;10.38;;;8.52;;
20369;SDS011;10344;47.592;9.600;2023-05-20T04:00:07;10.48;;;8.40;;
20369;SDS011;10344;47.592;9.600;2023-05-20T04:02:39;9.70;;;8.50;;
20369;SDS011;10344;47.592;9.600;2023-05-20T04:05:05;9.43;;;7.93;;
20369;SDS011;10344;47.592;9.600;2023-05-20T04:07:36;9.87;;;8.60;;
20369;SDS011;10344;47.592;9.600;2023-05-20T04:10:02;10.82;;;9.52;;
20369;SDS011;10344;47.592;9.600;2023-05-20T04:12:38;11.95;;;9.15;;
20369;SDS011;10344;47.592;9.600;2023-05-20T04:15:04;11.23;;;9.20;;
20369;SDS011;10344;47.592;9.600;2023-05-20T04:17:33;10.80;;;9.30;;
20369;SDS011;10344;47.592;9.600;2023-05-20T04:20:02;10.07;;;9.00;;
20369;SDS011;10344;47.592;9.600;2023-05-20T04:22:31;9.73;;;8.65;;
20369;SDS011;10344;47.592;9.600;2023-05-20T04:24:56;10.27;;;9.07;;
20369;SDS011;10344;47.592;9.600;2023-05-20T04:27:24;11.80;;;9.10;;
20369;SDS011;10344;47.592;9.600;2023-05-20T04:29:52;10.52;;;9.43;;
20369;SDS011;10344;47.592;9.600;2023-05-20T04:32:22;10.77;;;9.23;;
20369;SDS011;10344;47.592;9.600;2023-05-20T04:34:48;10.85;;;9.68;;
20369;SDS011;10344;47.592;9.600;2023-05-20T04:37:15;11.15;;;9.05;;
20369;SDS011;10344;47.592;9.600;2023-05-20T04:39:43;11.00;;;9.00;;
20369;SDS011;10344;47.592;9.600;2023-05-20T04:42:17;10.35;;;9.30;;
20369;SDS011;10344;47.592;9.600;2023-05-20T04:44:43;11.47;;;9.53;;
20369;SDS011;10344;47.592;9.600;2023-05-20T04:47:12;11.75;;;9.02;;
20369;SDS011;10344;47.592;9.600;2023-05-20T04:49:41;9.38;;;8.43;;
20369;SDS011;10344;47.592;9.600;2023-05-20T04:52:06;11.93;;;9.40;;
20369;SDS011;10344;47.592;9.600;2023-05-20T04:54:32;10.48;;;9.07;;
20369;SDS011;10344;47.592;9.600;2023-05-20T04:56:59;10.10;;;8.82;;
20369;SDS011;10344;47.592;9.600;2023-05-20T04:59:25;10.05;;;8.98;;
20369;SDS011;10344;47.592;9.600;2023-05-20T05:01:56;9.50;;;8.50;;
20369;SDS011;10344;47.592;9.600;2023-05-20T05:04:23;10.70;;;8.88;;
20369;SDS011;10344;47.592;9.600;2023-05-20T05:06:51;10.13;;;8.67;;
20369;SDS011;10344;47.592;9.600;2023-05-20T05:09:16;9.52;;;8.50;;
20369;SDS011;10344;47.592;9.600;2023-05-20T05:11:42;10.80;;;9.33;;
20369;SDS011;10344;47.592;9.600;2023-05-20T05:14:08;9.30;;;8.30;;
20369;SDS011;10344;47.592;9.600;2023-05-20T05:16:36;9.45;;;8.40;;
20369;SDS011;10344;47.592;9.600;2023-05-20T05:19:01;10.33;;;9.23;;
20369;SDS011;10344;47.592;9.600;2023-05-20T05:21:33;9.03;;;8.13;;
20369;SDS011;10344;47.592;9.600;2023-05-20T05:24:01;12.70;;;10.02;;
20369;SDS011;10344;47.592;9.600;2023-05-20T05:26:29;12.60;;;10.85;;
20369;SDS011;10344;47.592;9.600;2023-05-20T05:28:54;10.38;;;9.02;;
20369;SDS011;10344;47.592;9.600;2023-05-20T05:31:22;10.50;;;8.67;;
20369;SDS011;10344;47.592;9.600;2023-05-20T05:33:49;9.43;;;8.40;;
20369;SDS011;10344;47.592;9.600;2023-05-20T05:36:17;12.55;;;9.38;;
20369;SDS011;10344;47.592;9.600;2023-05-20T05:38:49;12.77;;;10.30;;
20369;SDS011;10344;47.592;9.600;2023-05-20T05:41:15;11.13;;;8.45;;
20369;SDS011;10344;47.592;9.600;2023-05-20T05:43:41;12.10;;;9.65;;
20369;SDS011;10344;47.592;9.600;2023-05-20T05:46:07;11.20;;;9.48;;
20369;SDS011;10344;47.592;9.600;2023-05-20T05:48:38;10.90;;;9.77;;
20369;SDS011;10344;47.592;9.600;2023-05-20T05:51:06;11.43;;;10.23;;
20369;SDS011;10344;47.592;9.600;2023-05-20T05:53:32;12.10;;;10.15;;
20369;SDS011;10344;47.592;9.600;2023-05-20T05:56:00;10.23;;;9.10;;
20369;SDS011;10344;47.592;9.600;2023-05-20T05:58:27;10.27;;;8.27;;
20369;SDS011;10344;47.592;9.600;2023-05-20T06:00:55;9.70;;;8.70;;
20369;SDS011;10344;47.592;9.600;2023-05-20T06:03:21;9.63;;;8.32;;
20369;SDS011;10344;47.592;9.600;2023-05-20T06:05:49;10.43;;;9.30;;
20369;SDS011;10344;47.592;9.600;2023-05-20T06:08:20;11.32;;;9.38;;
20369;SDS011;10344;47.592;9.600;2023-05-20T06:10:47;9.13;;;8.10;;
20369;SDS011;10344;47.592;9.600;2023-05-20T06:13:16;9.95;;;7.90;;
20369;SDS011;10344;47.592;9.600;2023-05-20T06:15:44;9.77;;;8.10;;
20369;SDS011;10344;47.592;9.600;2023-05-20T06:18:12;11.05;;;9.18;;
20369;SDS011;10344;47.592;9.600;2023-05-20T06:20:38;10.17;;;8.83;;
20369;SDS011;10344;47.592;9.600;2023-05-20T06:23:05;10.52;;;8.63;;
20369;SDS011;10344;47.592;9.600;2023-05-20T06:25:31;10.27;;;8.75;;
20369;SDS011;10344;47.592;9.600;2023-05-20T06:27:58;11.40;;;8.50;;
20369;SDS011;10344;47.592;9.600;2023-05-20T06:30:24;9.60;;;8.45;;
20369;SDS011;10344;47.592;9.600;2023-05-20T06:32:52;9.48;;;8.20;;
20369;SDS011;10344;47.592;9.600;2023-05-20T06:35:17;9.77;;;8.55;;
20369;SDS011;10344;47.592;9.600;2023-05-20T06:37:46;9.80;;;8.50;;
20369;SDS011;10344;47.592;9.600;2023-05-20T06:40:17;11.68;;;8.65;;
20369;SDS011;10344;47.592;9.600;2023-05-20T06:42:43;10.43;;;8.32;;
20369;SDS011;10344;47.592;9.600;2023-05-20T06:45:11;9.63;;;8.63;;
20369;SDS011;10344;47.592;9.600;2023-05-20T06:47:37;10.07;;;8.85;;
20369;SDS011;10344;47.592;9.600;2023-05-20T06:50:05;11.38;;;8.75;;
20369;SDS011;10344;47.592;9.600;2023-05-20T06:52:31;9.65;;;8.10;;
20369;SDS011;10344;47.592;9.600;2023-05-20T06:54:57;10.55;;;8.35;;
20369;SDS011;10344;47.592;9.600;2023-05-20T06:57:29;9.23;;;7.72;;
20369;SDS011;10344;47.592;9.600;2023-05-20T06:59:55;9.77;;;7.32;;
20369;SDS011;10344;47.592;9.600;2023-05-20T07:02:21;9.77;;;7.83;;
20369;SDS011;10344;47.592;9.600;2023-05-20T07:04:58;8.65;;;7.15;;
20369;SDS011;10344;47.592;9.600;2023-05-20T07:07:30;9.43;;;7.15;;
20369;SDS011;10344;47.592;9.600;2023-05-20T07:09:58;8.07;;;7.03;;
20369;SDS011;10344;47.592;9.600;2023-05-20T07:12:29;8.15;;;7.05;;
20369;SDS011;10344;47.592;9.600;2023-05-20T07:14:55;8.27;;;7.43;;
20369;SDS011;10344;47.592;9.600;2023-05-20T07:17:21;8.27;;;6.73;;
20369;SDS011;10344;47.592;9.600;2023-05-20T07:19:47;8.37;;;7.10;;
20369;SDS011;10344;47.592;9.600;2023-05-20T07:22:12;8.83;;;7.33;;
20369;SDS011;10344;47.592;9.600;2023-05-20T07:24:38;9.23;;;7.40;;
20369;SDS011;10344;47.592;9.600;2023-05-20T07:27:11;7.07;;;6.38;;
20369;SDS011;10344;47.592;9.600;2023-05-20T07:29:38;7.88;;;6.93;;
20369;SDS011;10344;47.592;9.600;2023-05-20T07:32:03;9.13;;;7.32;;
20369;SDS011;10344;47.592;9.600;2023-05-20T07:34:34;8.30;;;6.93;;
20369;SDS011;10344;47.592;9.600;2023-05-20T07:37:01;8.68;;;7.30;;
20369;SDS011;10344;47.592;9.600;2023-05-20T07:39:30;10.25;;;7.97;;
20369;SDS011;10344;47.592;9.600;2023-05-20T07:41:58;9.30;;;7.68;;
20369;SDS011;10344;47.592;9.600;2023-05-20T07:44:25;9.68;;;7.88;;
20369;SDS011;10344;47.592;9.600;2023-05-20T07:46:54;9.07;;;7.80;;
20369;SDS011;10344;47.592;9.600;2023-05-20T07:49:20;8.95;;;7.13;;
20369;SDS011;10344;47.592;9.600;2023-05-20T07:51:58;8.32;;;7.30;;
20369;SDS011;10344;47.592;9.600;2023-05-20T07:54:29;8.73;;;7.20;;
20369;SDS011;10344;47.592;9.600;2023-05-20T07:56:57;8.60;;;7.32;;
20369;SDS011;10344;47.592;9.600;2023-05-20T07:59:26;8.20;;;7.38;;
20369;SDS011;10344;47.592;9.600;2023-05-20T08:01:51;9.25;;;8.02;;
20369;SDS011;10344;47.592;9.600;2023-05-20T08:04:17;9.80;;;8.23;;
20369;SDS011;10344;47.592;9.600;2023-05-20T08:06:45;10.23;;;8.17;;
20369;SDS011;10344;47.592;9.600;2023-05-20T08:09:10;9.05;;;8.10;;
20369;SDS011;10344;47.592;9.600;2023-05-20T08:11:38;10.93;;;8.20;;
20369;SDS011;10344;47.592;9.600;2023-05-20T08:14:03;10.48;;;8.45;;
20369;SDS011;10344;47.592;9.600;2023-05-20T08:16:29;9.60;;;8.60;;
20369;SDS011;10344;47.592;9.600;2023-05-20T08:18:54;10.07;;;7.87;;
20369;SDS011;10344;47.592;9.600;2023-05-20T08:21:20;7.78;;;6.97;;
20369;SDS011;10344;47.592;9.600;2023-05-20T08:23:48;9.10;;;7.15;;
20369;SDS011;10344;47.592;9.600;2023-05-20T08:26:14;9.18;;;7.30;;
20369;SDS011;10344;47.592;9.600;2023-05-20T08:28:39;8.05;;;6.57;;
20369;SDS011;10344;47.592;9.600;2023-05-20T08:31:13;7.93;;;7.07;;
20369;SDS011;10344;47.592;9.600;2023-05-20T08:33:42;8.15;;;7.35;;
20369;SDS011;10344;47.592;9.600;2023-05-20T08:36:11;9.23;;;7.38;;
20369;SDS011;10344;47.592;9.600;2023-05-20T08:38:46;7.70;;;6.00;;
20369;SDS011;10344;47.592;9.600;2023-05-20T08:41:12;9.60;;;7.72;;
20369;SDS011;10344;47.592;9.600;2023-05-20T08:43:40;8.40;;;7.50;;
20369;SDS011;10344;47.592;9.600;2023-05-20T08:46:11;7.90;;;7.10;;
20369;SDS011;10344;47.592;9.600;2023-05-20T08:48:40;8.55;;;7.38;;
20369;SDS011;10344;47.592;9.600;2023-05-20T08:51:15;7.88;;;7.13;;
20369;SDS011;10344;47.592;9.600;2023-05-20T08:53:44;7.88;;;6.82;;
20369;SDS011;10344;47.592;9.600;2023-05-20T08:56:19;9.20;;;7.80;;
20369;SDS011;10344;47.592;9.600;2023-05-20T08:58:54;8.82;;;7.40;;
20369;SDS011;10344;47.592;9.600;2023-05-20T09:01:26;9.53;;;8.37;;
20369;SDS011;10344;47.592;9.600;2023-05-20T09:03:53;10.50;;;9.17;;
20369;SDS011;10344;47.592;9.600;2023-05-20T09:06:22;9.82;;;8.55;;
20369;SDS011;10344;47.592;9.600;2023-05-20T09:08:56;10.15;;;9.13;;
20369;SDS011;10344;47.592;9.600;2023-05-20T09:11:24;10.70;;;9.32;;
20369;SDS011;10344;47.592;9.600;2023-05-20T09:13:54;10.93;;;9.40;;
20369;SDS011;10344;47.592;9.600;2023-05-20T09:16:20;10.17;;;8.23;;
20369;SDS011;10344;47.592;9.600;2023-05-20T09:18:46;10.43;;;8.50;;
20369;SDS011;10344;47.592;9.600;2023-05-20T09:21:11;11.38;;;9.43;;
20369;SDS011;10344;47.592;9.600;2023-05-20T09:23:38;9.47;;;8.47;;
20369;SDS011;10344;47.592;9.600;2023-05-20T09:26:06;10.17;;;8.13;;
20369;SDS011;10344;47.592;9.600;2023-05-20T09:28:34;10.47;;;8.83;;
20369;SDS011;10344;47.592;9.600;2023-05-20T09:31:02;10.88;;;9.50;;
20369;SDS011;10344;47.592;9.600;2023-05-20T09:33:30;9.63;;;8.53;;
20369;SDS011;10344;47.592;9.600;2023-05-20T09:36:03;10.52;;;8.68;;
20369;SDS011;10344;47.592;9.600;2023-05-20T09:38:41;10.68;;;9.00;;
20369;SDS011;10344;47.592;9.600;2023-05-20T09:41:11;9.55;;;8.05;;
20369;SDS011;10344;47.592;9.600;2023-05-20T09:43:43;10.77;;;8.40;;
20369;SDS011;10344;47.592;9.600;2023-05-20T09:46:11;8.40;;;7.50;;
20369;SDS011;10344;47.592;9.600;2023-05-20T09:48:39;8.25;;;7.30;;
20369;SDS011;10344;47.592;9.600;2023-05-20T09:51:05;8.27;;;7.47;;
20369;SDS011;10344;47.592;9.600;2023-05-20T09:53:31;7.22;;;6.43;;
20369;SDS011;10344;47.592;9.600;2023-05-20T09:55:57;8.77;;;7.32;;
20369;SDS011;10344;47.592;9.600;2023-05-20T09:58:25;7.88;;;6.05;;
20369;SDS011;10344;47.592;9.600;2023-05-20T10:00:55;7.28;;;5.72;;
20369;SDS011;10344;47.592;9.600;2023-05-20T10:03:23;7.70;;;6.33;;
20369;SDS011;10344;47.592;9.600;2023-05-20T10:19:11;7.87;;;5.87;;
20369;SDS011;10344;47.592;9.600;2023-05-20T10:21:59;6.38;;;5.47;;
20369;SDS011;10344;47.592;9.600;2023-05-20T10:24:36;6.13;;;5.53;;
20369;SDS011;10344;47.592;9.600;2023-05-20T10:27:16;7.47;;;5.70;;
20369;SDS011;10344;47.592;9.600;2023-05-20T10:34:57;7.60;;;5.78;;
20369;SDS011;10344;47.592;9.600;2023-05-20T10:37:28;7.18;;;5.60;;
20369;SDS011;10344;47.592;9.600;2023-05-20T10:40:10;7.10;;;5.60;;
20369;SDS011;10344;47.592;9.600;2023-05-20T10:42:37;6.80;;;5.50;;
20369;SDS011;10344;47.592;9.600;2023-05-20T10:45:03;7.15;;;5.85;;
20369;SDS011;10344;47.592;9.600;2023-05-20T10:47:32;7.68;;;5.53;;
20369;SDS011;10344;47.592;9.600;2023-05-20T10:49:58;7.83;;;6.37;;
20369;SDS011;10344;47.592;9.600;2023-05-20T10:52:26;6.88;;;5.40;;
20369;SDS011;10344;47.592;9.600;2023-05-20T10:57:22;6.68;;;5.97;;
20369;SDS011;10344;47.592;9.600;2023-05-20T10:59:49;6.93;;;5.57;;
20369;SDS011;10344;47.592;9.600;2023-05-20T11:02:16;7.05;;;5.60;;
20369;SDS011;10344;47.592;9.600;2023-05-20T11:04:50;7.38;;;5.93;;
20369;SDS011;10344;47.592;9.600;2023-05-20T11:07:29;6.25;;;5.57;;
20369;SDS011;10344;47.592;9.600;2023-05-20T11:09:58;7.47;;;5.93;;
20369;SDS011;10344;47.592;9.600;2023-05-20T11:12:31;6.40;;;5.40;;
20369;SDS011;10344;47.592;9.600;2023-05-20T11:14:56;7.32;;;5.78;;
20369;SDS011;10344;47.592;9.600;2023-05-20T11:17:22;8.02;;;5.95;;
20369;SDS011;10344;47.592;9.600;2023-05-20T11:19:50;7.73;;;6.07;;
20369;SDS011;10344;47.592;9.600;2023-05-20T11:22:18;6.85;;;5.95;;
20369;SDS011;10344;47.592;9.600;2023-05-20T11:24:45;7.35;;;6.03;;
20369;SDS011;10344;47.592;9.600;2023-05-20T11:27:12;7.60;;;6.05;;
20369;SDS011;10344;47.592;9.600;2023-05-20T11:29:38;7.30;;;6.38;;
20369;SDS011;10344;47.592;9.600;2023-05-20T11:32:13;6.60;;;5.95;;
20369;SDS011;10344;47.592;9.600;2023-05-20T11:34:49;9.50;;;6.53;;
20369;SDS011;10344;47.592;9.600;2023-05-20T11:37:30;8.38;;;6.70;;
20369;SDS011;10344;47.592;9.600;2023-05-20T11:40:02;6.93;;;6.22;;
20369;SDS011;10344;47.592;9.600;2023-05-20T11:42:35;7.32;;;6.10;;
20369;SDS011;10344;47.592;9.600;2023-05-20T11:45:12;7.70;;;6.22;;
20369;SDS011;10344;47.592;9.600;2023-05-20T11:47:38;7.03;;;5.90;;
20369;SDS011;10344;47.592;9.600;2023-05-20T11:50:08;6.80;;;5.88;;
20369;SDS011;10344;47.592;9.600;2023-05-20T11:52:48;6.97;;;6.28;;
20369;SDS011;10344;47.592;9.600;2023-05-20T11:55:43;6.53;;;5.47;;
20369;SDS011;10344;47.592;9.600;2023-05-20T11:58:14;5.72;;;5.10;;
20369;SDS011;10344;47.592;9.600;2023-05-20T12:00:44;6.55;;;5.38;;
20369;SDS011;10344;47.592;9.600;2023-05-20T12:03:10;6.55;;;5.68;;
20369;SDS011;10344;47.592;9.600;2023-05-20T12:05:39;5.45;;;4.95;;
20369;SDS011;10344;47.592;9.600;2023-05-20T12:08:06;5.25;;;4.75;;
20369;SDS011;10344;47.592;9.600;2023-05-20T12:10:35;6.97;;;5.53;;
20369;SDS011;10344;47.592;9.600;2023-05-20T12:13:04;5.60;;;5.00;;
20369;SDS011;10344;47.592;9.600;2023-05-20T12:15:33;6.15;;;5.25;;
20369;SDS011;10344;47.592;9.600;2023-05-20T12:18:02;7.05;;;6.03;;
20369;SDS011;10344;47.592;9.600;2023-05-20T12:20:31;6.03;;;4.90;;
20369;SDS011;10344;47.592;9.600;2023-05-20T12:22:58;6.88;;;5.47;;
20369;SDS011;10344;47.592;9.600;2023-05-20T12:25:26;5.95;;;5.32;;
20369;SDS011;10344;47.592;9.600;2023-05-20T12:27:52;6.05;;;4.93;;
20369;SDS011;10344;47.592;9.600;2023-05-20T12:30:23;5.65;;;4.70;;
20369;SDS011;10344;47.592;9.600;2023-05-20T12:32:50;5.05;;;4.55;;
20369;SDS011;10344;47.592;9.600;2023-05-20T12:35:39;7.72;;;5.15;;
20369;SDS011;10344;47.592;9.600;2023-05-20T12:38:05;7.70;;;5.85;;
20369;SDS011;10344;47.592;9.600;2023-05-20T12:40:38;6.00;;;5.07;;
20369;SDS011;10344;47.592;9.600;2023-05-20T12:43:04;5.65;;;5.05;;
20369;SDS011;10344;47.592;9.600;2023-05-20T12:45:30;5.80;;;4.60;;
20369;SDS011;10344;47.592;9.600;2023-05-20T12:47:56;5.80;;;5.20;;
20369;SDS011;10344;47.592;9.600;2023-05-20T12:50:26;7.20;;;5.50;;
20369;SDS011;10344;47.592;9.600;2023-05-20T12:52:55;5.30;;;4.80;;
20369;SDS011;10344;47.592;9.600;2023-05-20T12:55:20;5.27;;;4.70;;
20369;SDS011;10344;47.592;9.600;2023-05-20T12:57:49;5.70;;;5.10;;
20369;SDS011;10344;47.592;9.600;2023-05-20T13:00:20;6.83;;;5.40;;
20369;SDS011;10344;47.592;9.600;2023-05-20T13:02:45;5.97;;;4.95;;
20369;SDS011;10344;47.592;9.600;2023-05-20T13:05:15;6.28;;;5.68;;
20369;SDS011;10344;47.592;9.600;2023-05-20T13:07:43;6.18;;;5.50;;
20369;SDS011;10344;47.592;9.600;2023-05-20T13:10:11;6.53;;;5.75;;
20369;SDS011;10344;47.592;9.600;2023-05-20T13:12:37;6.30;;;5.23;;
20369;SDS011;10344;47.592;9.600;2023-05-20T13:15:03;6.60;;;5.00;;
20369;SDS011;10344;47.592;9.600;2023-05-20T13:17:31;6.47;;;4.90;;
20369;SDS011;10344;47.592;9.600;2023-05-20T13:19:57;6.78;;;5.10;;
20369;SDS011;10344;47.592;9.600;2023-05-20T13:22:23;5.57;;;4.93;;
20369;SDS011;10344;47.592;9.600;2023-05-20T13:24:51;5.40;;;4.90;;
20369;SDS011;10344;47.592;9.600;2023-05-20T13:27:19;5.80;;;4.90;;
20369;SDS011;10344;47.592;9.600;2023-05-20T13:29:48;5.40;;;4.40;;
20369;SDS011;10344;47.592;9.600;2023-05-20T13:32:18;7.05;;;4.80;;
20369;SDS011;10344;47.592;9.600;2023-05-20T13:34:44;6.20;;;5.27;;
20369;SDS011;10344;47.592;9.600;2023-05-20T13:37:09;6.07;;;5.20;;
20369;SDS011;10344;47.592;9.600;2023-05-20T13:39:35;5.30;;;4.70;;
20369;SDS011;10344;47.592;9.600;2023-05-20T13:42:09;5.43;;;4.85;;
20369;SDS011;10344;47.592;9.600;2023-05-20T13:44:34;7.10;;;4.73;;
20369;SDS011;10344;47.592;9.600;2023-05-20T13:47:03;6.18;;;4.93;;
20369;SDS011;10344;47.592;9.600;2023-05-20T13:49:31;5.63;;;4.63;;
20369;SDS011;10344;47.592;9.600;2023-05-20T13:51:59;4.77;;;4.10;;
20369;SDS011;10344;47.592;9.600;2023-05-20T13:54:25;5.80;;;5.20;;
20369;SDS011;10344;47.592;9.600;2023-05-20T13:56:51;5.60;;;4.77;;
20369;SDS011;10344;47.592;9.600;2023-05-20T13:59:17;5.72;;;4.30;;
20369;SDS011;10344;47.592;9.600;2023-05-20T14:01:43;5.15;;;4.47;;
20369;SDS011;10344;47.592;9.600;2023-05-20T14:04:10;4.90;;;4.40;;
20369;SDS011;10344;47.592;9.600;2023-05-20T14:06:39;6.13;;;4.53;;
20369;SDS011;10344;47.592;9.600;2023-05-20T14:09:07;4.30;;;3.90;;
20369;SDS011;10344;47.592;9.600;2023-05-20T14:11:33;6.40;;;5.20;;
20369;SDS011;10344;47.592;9.600;2023-05-20T14:13:59;5.47;;;4.68;;
20369;SDS011;10344;47.592;9.600;2023-05-20T14:16:25;5.28;;;4.78;;
20369;SDS011;10344;47.592;9.600;2023-05-20T14:18:51;5.57;;;4.73;;
20369;SDS011;10344;47.592;9.600;2023-05-20T14:21:23;5.27;;;4.30;;
20369;SDS011;10344;47.592;9.600;2023-05-20T14:23:51;4.33;;;3.93;;
20369;SDS011;10344;47.592;9.600;2023-05-20T14:26:22;7.00;;;4.73;;
20369;SDS011;10344;47.592;9.600;2023-05-20T14:28:49;5.50;;;4.50;;
20369;SDS011;10344;47.592;9.600;2023-05-20T14:31:16;4.88;;;4.00;;
20369;SDS011;10344;47.592;9.600;2023-05-20T14:33:48;5.90;;;4.40;;
20369;SDS011;10344;47.592;9.600;2023-05-20T14:36:14;5.88;;;4.50;;
20369;SDS011;10344;47.592;9.600;2023-05-20T14:38:39;5.55;;;4.60;;
20369;SDS011;10344;47.592;9.600;2023-05-20T14:41:07;4.73;;;3.90;;
20369;SDS011;10344;47.592;9.600;2023-05-20T14:43:39;5.90;;;5.28;;
20369;SDS011;10344;47.592;9.600;2023-05-20T14:46:07;5.47;;;4.50;;
20369;SDS011;10344;47.592;9.600;2023-05-20T14:48:36;6.43;;;4.57;;
20369;SDS011;10344;47.592;9.600;2023-05-20T14:51:04;5.10;;;4.60;;
20369;SDS011;10344;47.592;9.600;2023-05-20T14:53:30;6.32;;;4.85;;
20369;SDS011;10344;47.592;9.600;2023-05-20T14:55:56;5.70;;;5.07;;
20369;SDS011;10344;47.592;9.600;2023-05-20T14:58:25;5.60;;;4.90;;
20369;SDS011;10344;47.592;9.600;2023-05-20T15:00:53;5.03;;;4.40;;
20369;SDS011;10344;47.592;9.600;2023-05-20T15:03:18;5.97;;;4.70;;
20369;SDS011;10344;47.592;9.600;2023-05-20T15:05:44;5.55;;;4.85;;
20369;SDS011;10344;47.592;9.600;2023-05-20T15:08:10;7.65;;;5.10;;
20369;SDS011;10344;47.592;9.600;2023-05-20T15:10:38;4.55;;;4.07;;
20369;SDS011;10344;47.592;9.600;2023-05-20T15:13:09;5.53;;;4.20;;